createdAt,value
2023-04-16T00:00:01.965Z,22.5
2023-04-16T00:02:28.654Z,22.3
2023-04-16T00:04:55.335Z,20.4
2023-04-16T00:07:22.025Z,21.9
2023-04-16T00:09:48.707Z,19.7
2023-04-16T00:12:15.388Z,25.9
2023-04-16T00:14:42.059Z,23.1
2023-04-16T00:17:08.758Z,22.7
2023-04-16T00:19:35.449Z,21.3
2023-04-16T00:22:02.129Z,19.8
2023-04-16T00:24:28.813Z,18.8
2023-04-16T00:26:55.492Z,19.9
2023-04-16T00:29:20.728Z,20.9
2023-04-16T00:31:47.407Z,20.8
2023-04-16T00:34:14.091Z,22.7
2023-04-16T00:36:40.789Z,20.4
2023-04-16T00:39:07.459Z,22.7
2023-04-16T00:41:34.145Z,19.4
2023-04-16T00:44:00.827Z,22.4
2023-04-16T00:46:27.527Z,20.7
2023-04-16T00:48:54.206Z,22.4
2023-04-16T00:51:20.883Z,21.2
2023-04-16T00:53:47.569Z,18.9
2023-04-16T00:56:14.255Z,22
2023-04-16T00:58:40.944Z,20.2
2023-04-16T01:01:06.167Z,23
2023-04-16T01:03:32.845Z,26.2
2023-04-16T01:05:59.529Z,23
2023-04-16T01:08:26.206Z,20.5
2023-04-16T01:10:52.896Z,26.5
2023-04-16T01:13:19.589Z,24.3
2023-04-16T01:15:46.277Z,24.3
2023-04-16T01:18:12.953Z,23.6
2023-04-16T01:20:39.637Z,27.5
2023-04-16T01:23:06.317Z,26.1
2023-04-16T01:25:33.014Z,21.2
2023-04-16T01:27:59.692Z,24
2023-04-16T01:30:26.379Z,20.3
2023-04-16T01:32:51.594Z,17.4
2023-04-16T01:35:18.280Z,17.4
2023-04-16T01:37:44.964Z,18
2023-04-16T01:40:11.652Z,22.1
2023-04-16T01:42:38.331Z,19.1
2023-04-16T01:45:05.020Z,15.9
2023-04-16T01:47:30.263Z,17.3
2023-04-16T01:49:56.954Z,18.7
2023-04-16T01:52:23.630Z,19.5
2023-04-16T01:54:50.318Z,20.2
2023-04-16T01:57:17.018Z,19.4
2023-04-16T01:59:43.696Z,19.9
2023-04-16T02:02:10.363Z,17.2
2023-04-16T02:04:37.057Z,19.8
2023-04-16T02:07:03.741Z,20.4
2023-04-16T02:09:30.428Z,18.4
2023-04-16T02:11:57.116Z,18.8
2023-04-16T02:14:23.800Z,20
2023-04-16T02:16:50.474Z,20.7
2023-04-16T02:19:15.712Z,15.8
2023-04-16T02:21:42.374Z,16.8
2023-04-16T02:24:09.067Z,21.4
2023-04-16T02:26:35.750Z,17.5
2023-04-16T02:29:02.448Z,17.7
2023-04-16T02:31:29.123Z,17.6
2023-04-16T02:33:55.813Z,18.6
2023-04-16T02:36:22.500Z,17.5
2023-04-16T02:38:49.166Z,19.5
2023-04-16T02:41:15.878Z,18.4
2023-04-16T02:43:42.549Z,17
2023-04-16T02:46:09.221Z,16.3
2023-04-16T02:48:35.914Z,15
2023-04-16T02:51:01.141Z,15.8
2023-04-16T02:53:27.814Z,16.2
2023-04-16T02:55:54.490Z,19.4
2023-04-16T02:58:21.177Z,15.6
2023-04-16T03:00:47.874Z,17.6
2023-04-16T03:03:14.569Z,17.4
2023-04-16T03:05:41.250Z,15.4
2023-04-16T03:08:07.932Z,16.4
2023-04-16T03:10:34.611Z,15.2
2023-04-16T03:13:01.296Z,17.3
2023-04-16T03:15:27.995Z,18.2
2023-04-16T03:17:54.668Z,17.8
2023-04-16T03:20:21.362Z,16
2023-04-16T03:22:46.568Z,17
2023-04-16T03:25:13.252Z,16.5
2023-04-16T03:27:39.940Z,18.3
2023-04-16T03:30:06.615Z,19.8
2023-04-16T03:32:33.314Z,19.3
2023-04-16T03:34:59.991Z,19.2
2023-04-16T03:37:26.685Z,17.8
2023-04-16T03:39:53.372Z,20.1
2023-04-16T03:42:20.053Z,20.6
2023-04-16T03:44:46.733Z,20.9
2023-04-16T03:47:13.441Z,18.3
2023-04-16T03:49:40.114Z,18.9
2023-04-16T03:52:06.792Z,17.1
2023-04-16T03:54:32.013Z,20.6
2023-04-16T03:56:58.701Z,18.8
2023-04-16T03:59:25.396Z,17
2023-04-16T04:01:52.110Z,15.7
2023-04-16T04:04:18.786Z,25
2023-04-16T04:06:45.455Z,19.1
2023-04-16T04:09:12.122Z,23.5
2023-04-16T04:11:38.815Z,17.4
2023-04-16T04:14:05.491Z,17.5
2023-04-16T04:16:32.190Z,20.8
2023-04-16T04:18:58.854Z,18.7
2023-04-16T04:21:25.559Z,18.4
2023-04-16T04:23:52.242Z,20
2023-04-16T04:26:17.458Z,18
2023-04-16T04:28:44.148Z,16.1
2023-04-16T04:31:10.842Z,17.6
2023-04-16T04:33:37.514Z,19
2023-04-16T04:36:04.201Z,21.3
2023-04-16T04:38:30.879Z,18.7
2023-04-16T04:40:57.564Z,19.6
2023-04-16T04:43:24.243Z,20.2
2023-04-16T04:45:50.942Z,17.6
2023-04-16T04:48:17.616Z,21
2023-04-16T04:50:44.325Z,19.6
2023-04-16T04:53:10.998Z,20.5
2023-04-16T04:55:37.674Z,19.3
2023-04-16T04:58:02.904Z,23.8
2023-04-16T05:00:29.579Z,20.6
2023-04-16T05:02:56.251Z,22.6
2023-04-16T05:05:22.948Z,20.1
2023-04-16T05:07:49.644Z,20.5
2023-04-16T05:10:16.317Z,19.1
2023-04-16T05:12:42.999Z,21.4
2023-04-16T05:15:09.695Z,20.7
2023-04-16T05:17:36.378Z,20
2023-04-16T05:20:03.064Z,21.7
2023-04-16T05:22:29.749Z,22.7
2023-04-16T05:24:56.462Z,19.8
2023-04-16T05:27:23.130Z,17.8
2023-04-16T05:29:48.342Z,23.9
2023-04-16T05:32:15.059Z,20.6
2023-04-16T05:34:41.696Z,20.8
2023-04-16T05:37:08.439Z,21.2
2023-04-16T05:39:35.066Z,24.6
2023-04-16T05:42:01.772Z,25.9
2023-04-16T05:44:28.455Z,23
2023-04-16T05:46:55.120Z,21.5
2023-04-16T05:49:21.810Z,20.3
2023-04-16T05:51:48.491Z,21.7
2023-04-16T05:54:15.203Z,24.4
2023-04-16T05:56:41.871Z,22.8
2023-04-16T05:59:08.548Z,24.6
2023-04-16T06:01:33.779Z,24.6
2023-04-16T06:04:00.483Z,22.5
2023-04-16T06:06:27.155Z,24.7
2023-04-16T06:08:53.817Z,27.5
2023-04-16T06:11:20.509Z,27.7
2023-04-16T06:13:47.193Z,26.3
2023-04-16T06:16:13.885Z,27
2023-04-16T06:18:40.623Z,31.1
2023-04-16T06:21:07.256Z,25.9
2023-04-16T06:23:33.946Z,29.2
2023-04-16T06:26:00.624Z,31
2023-04-16T06:28:27.327Z,34.5
2023-04-16T06:30:53.987Z,32.2
2023-04-16T06:33:19.217Z,32
2023-04-16T06:35:45.932Z,35.9
2023-04-16T06:38:12.625Z,36.4
2023-04-16T06:40:39.265Z,33.2
2023-04-16T06:43:05.990Z,36.2
2023-04-16T06:45:32.645Z,37.8
2023-04-16T06:47:59.325Z,40.6
2023-04-16T06:50:26.008Z,33.3
2023-04-16T06:52:52.718Z,36.5
2023-04-16T06:55:19.380Z,37.9
2023-04-16T06:57:46.070Z,37.6
2023-04-16T07:00:12.739Z,35.6
2023-04-16T07:02:39.441Z,35.8
2023-04-16T07:05:04.651Z,38.3
2023-04-16T07:07:31.346Z,37.1
2023-04-16T07:09:58.015Z,36.1
2023-04-16T07:12:24.721Z,40.7
2023-04-16T07:14:51.396Z,36.8
2023-04-16T07:17:18.082Z,36.2
2023-04-16T07:19:44.761Z,40.2
2023-04-16T07:22:11.502Z,37.1
2023-04-16T07:24:38.132Z,39.2
2023-04-16T07:27:04.822Z,38.9
2023-04-16T07:29:31.537Z,38.7
2023-04-16T07:31:58.189Z,41.8
2023-04-16T07:34:24.872Z,34.6
2023-04-16T07:36:50.148Z,39.3
2023-04-16T07:39:16.795Z,37.2
2023-04-16T07:41:43.479Z,35.1
2023-04-16T07:44:10.159Z,35.5
2023-04-16T07:46:36.838Z,39.2
2023-04-16T07:49:03.544Z,39.1
2023-04-16T07:51:30.218Z,38.4
2023-04-16T07:53:56.897Z,35.1
2023-04-16T07:56:23.581Z,35.1
2023-04-16T07:58:50.257Z,33.2
2023-04-16T08:01:16.955Z,36.3
2023-04-16T08:03:43.637Z,34.2
2023-04-16T08:06:10.352Z,32
2023-04-16T08:08:35.551Z,33.2
2023-04-16T08:11:02.236Z,32
2023-04-16T08:13:28.932Z,29.3
2023-04-16T08:15:55.604Z,35.4
2023-04-16T08:18:22.290Z,26.9
2023-04-16T08:20:48.966Z,32
2023-04-16T08:23:15.663Z,34.5
2023-04-16T08:25:42.403Z,32.8
2023-04-16T08:28:09.039Z,33.6
2023-04-16T08:30:35.719Z,32.4
2023-04-16T08:33:02.426Z,30.8
2023-04-16T08:35:29.085Z,30.5
2023-04-16T08:37:55.781Z,35.5
2023-04-16T08:40:20.981Z,30
2023-04-16T08:42:47.668Z,33.9
2023-04-16T08:45:14.360Z,29.7
2023-04-16T08:47:41.036Z,31.4
2023-04-16T08:50:07.741Z,32.6
2023-04-16T08:52:34.435Z,28.9
2023-04-16T08:55:01.115Z,24.3
2023-04-16T08:57:27.777Z,26.7
2023-04-16T08:59:54.473Z,25.7
2023-04-16T09:02:21.253Z,25
2023-04-16T09:04:47.848Z,22.7
2023-04-16T09:07:14.515Z,24.7
2023-04-16T09:09:41.198Z,22.5
2023-04-16T09:12:06.477Z,22.7
2023-04-16T09:14:33.100Z,24.4
2023-04-16T09:16:59.779Z,23.2
2023-04-16T09:19:26.471Z,18.3
2023-04-16T09:21:53.154Z,19.8
2023-04-16T09:24:19.850Z,20.5
2023-04-16T09:26:46.558Z,20.6
2023-04-16T09:29:13.216Z,21
2023-04-16T09:31:39.893Z,21.9
2023-04-16T09:34:06.610Z,20.9
2023-04-16T09:36:33.274Z,22.5
2023-04-16T09:38:59.954Z,20.1
2023-04-16T09:41:26.631Z,20.7
2023-04-16T09:43:53.330Z,21.2
2023-04-16T09:46:20.004Z,23.6
2023-04-16T09:48:46.708Z,21.4
2023-04-16T09:51:13.380Z,18.6
2023-04-16T09:53:38.611Z,22.4
2023-04-16T09:56:05.290Z,19.8
2023-04-16T09:58:31.983Z,19.5
2023-04-16T10:00:57.226Z,21.4
2023-04-16T10:03:23.907Z,20.3
2023-04-16T10:05:50.565Z,22.2
2023-04-16T10:08:17.304Z,20.4
2023-04-16T10:10:43.957Z,21.8
2023-04-16T10:13:10.626Z,24.5
2023-04-16T10:15:37.315Z,24.8
2023-04-16T10:18:04.005Z,22.9
2023-04-16T10:20:30.689Z,21.7
2023-04-16T10:22:57.397Z,20.9
2023-04-16T10:25:24.082Z,23.5
2023-04-16T10:27:50.749Z,21.3
2023-04-16T10:30:17.428Z,26.7
2023-04-16T10:32:44.105Z,25.1
2023-04-16T10:35:10.805Z,21.7
2023-04-16T10:37:36.118Z,25.1
2023-04-16T10:40:02.699Z,24
2023-04-16T10:42:29.518Z,21.7
2023-04-16T10:44:56.149Z,17.9
2023-04-16T10:47:22.748Z,22
2023-04-16T10:49:49.431Z,20
2023-04-16T10:52:16.192Z,21
2023-04-16T10:54:42.873Z,19.3
2023-04-16T10:57:09.516Z,20.1
2023-04-16T10:59:36.204Z,20.8
2023-04-16T11:02:02.912Z,21
2023-04-16T11:04:29.544Z,21.3
2023-04-16T11:06:56.247Z,18.4
2023-04-16T11:09:21.452Z,18.5
2023-04-16T11:11:48.167Z,21.1
2023-04-16T11:14:14.810Z,16.2
2023-04-16T11:16:41.503Z,18.4
2023-04-16T11:19:08.181Z,17.3
2023-04-16T11:21:34.874Z,18.6
2023-04-16T11:24:01.550Z,18.3
2023-04-16T11:26:28.246Z,19.8
2023-04-16T11:28:54.924Z,23.1
2023-04-16T11:31:21.631Z,24.7
2023-04-16T11:33:48.289Z,24.2
2023-04-16T11:36:14.981Z,25.4
2023-04-16T11:38:41.770Z,20.1
2023-04-16T11:41:08.381Z,20.3
2023-04-16T11:43:35.028Z,21.5
2023-04-16T11:46:01.711Z,19
2023-04-16T11:48:28.413Z,20.9
2023-04-16T11:50:53.632Z,19.2
2023-04-16T11:53:20.317Z,22.8
2023-04-16T11:55:47.011Z,19.7
2023-04-16T11:58:13.690Z,20.5
2023-04-16T12:00:40.449Z,21.9
2023-04-16T12:03:07.083Z,17.8
2023-04-16T12:08:00.430Z,15.8
2023-04-16T12:12:53.788Z,16.6
2023-04-16T12:15:20.508Z,14
2023-04-16T12:17:47.238Z,16.1
2023-04-16T12:20:13.878Z,15.5
2023-04-16T12:22:39.090Z,14.4
2023-04-16T12:25:05.758Z,14.6
2023-04-16T12:27:32.428Z,11.5
2023-04-16T12:29:59.118Z,11
2023-04-16T12:32:25.806Z,11.2
2023-04-16T12:34:52.485Z,11.6
2023-04-16T12:37:19.163Z,10.3
2023-04-16T12:39:45.857Z,11
2023-04-16T12:42:12.549Z,9.7
2023-04-16T12:44:39.274Z,10.5
2023-04-16T12:47:05.910Z,8.5
2023-04-16T12:51:59.278Z,13
2023-04-16T12:54:24.543Z,10.6
2023-04-16T12:56:49.873Z,10.8
2023-04-16T12:59:16.442Z,11.9
2023-04-16T13:01:43.121Z,10.8
2023-04-16T13:04:09.813Z,10
2023-04-16T13:06:36.493Z,10
2023-04-16T13:09:03.176Z,10.8
2023-04-16T13:11:29.990Z,8.8
2023-04-16T13:13:56.562Z,10.2
2023-04-16T13:16:23.245Z,11.8
2023-04-16T13:18:49.931Z,11.2
2023-04-16T13:21:15.171Z,10.9
2023-04-16T13:23:40.424Z,12.2
2023-04-16T13:26:07.081Z,14.1
2023-04-16T13:28:33.761Z,11.9
2023-04-16T13:31:00.460Z,8.4
2023-04-16T13:33:27.217Z,9.7
2023-04-16T13:35:53.859Z,10.8
2023-04-16T13:38:20.501Z,11.5
2023-04-16T13:40:47.200Z,11.7
2023-04-16T13:43:13.858Z,10.6
2023-04-16T13:45:40.675Z,11.3
2023-04-16T13:48:07.289Z,10.5
2023-04-16T13:50:33.929Z,10.5
2023-04-16T13:53:00.605Z,10.7
2023-04-16T13:55:27.290Z,11.6
2023-04-16T13:57:52.522Z,12.2
2023-04-16T14:00:19.201Z,10.8
2023-04-16T14:02:45.901Z,9.2
2023-04-16T14:05:12.573Z,12.8
2023-04-16T14:07:39.251Z,12.1
2023-04-16T14:10:05.937Z,11.8
2023-04-16T14:12:32.610Z,13.6
2023-04-16T14:14:59.300Z,13
2023-04-16T14:17:26.015Z,13.3
2023-04-16T14:19:52.669Z,12.3
2023-04-16T14:22:19.349Z,13.2
2023-04-16T14:24:46.061Z,17.1
2023-04-16T14:27:12.737Z,13.5
2023-04-16T14:29:37.947Z,15
2023-04-16T14:32:04.641Z,14.7
2023-04-16T14:34:31.324Z,13.9
2023-04-16T14:36:58.056Z,14.4
2023-04-16T14:39:24.682Z,14.3
2023-04-16T14:41:51.375Z,19.4
2023-04-16T14:44:18.053Z,15.5
2023-04-16T14:46:44.744Z,15.2
2023-04-16T14:49:11.448Z,16
2023-04-16T14:51:38.101Z,14.6
2023-04-16T14:54:04.801Z,15
2023-04-16T14:56:31.484Z,18
2023-04-16T14:58:58.181Z,20.9
2023-04-16T15:01:23.383Z,18.8
2023-04-16T15:03:50.064Z,18.3
2023-04-16T15:06:16.777Z,18.4
2023-04-16T15:08:43.525Z,17.7
2023-04-16T15:11:10.133Z,17
2023-04-16T15:13:36.841Z,16.8
2023-04-16T15:16:03.482Z,20.2
2023-04-16T15:18:30.185Z,19.5
2023-04-16T15:20:56.964Z,18.8
2023-04-16T15:23:23.549Z,22
2023-04-16T15:25:50.224Z,19.5
2023-04-16T15:28:16.907Z,19.8
2023-04-16T15:30:43.606Z,20.4
2023-04-16T15:33:08.837Z,21
2023-04-16T15:38:02.196Z,24.2
2023-04-16T15:40:28.876Z,24.6
2023-04-16T15:42:55.570Z,27.7
2023-04-16T15:45:22.296Z,26.7
2023-04-16T15:47:48.925Z,25.5
2023-04-16T15:52:42.334Z,26.6
2023-04-16T15:55:09.003Z,27.7
2023-04-16T15:57:35.679Z,26.4
2023-04-16T16:00:02.376Z,26.2
2023-04-16T16:02:29.040Z,26.5
2023-04-16T16:04:54.271Z,23.8
2023-04-16T16:07:20.947Z,31.3
2023-04-16T16:09:47.626Z,26.9
2023-04-16T16:12:14.321Z,25.4
2023-04-16T16:14:41.017Z,27.3
2023-04-16T16:17:07.672Z,27.9
2023-04-16T16:19:34.374Z,32.1
2023-04-16T16:22:01.061Z,32.3
2023-04-16T16:24:27.731Z,29.2
2023-04-16T16:26:54.432Z,28.7
2023-04-16T16:29:21.119Z,30.4
2023-04-16T16:31:47.791Z,28.7
2023-04-16T16:34:14.482Z,29.5
2023-04-16T16:36:41.233Z,26.7
2023-04-16T16:39:06.383Z,27
2023-04-16T16:41:33.074Z,27.8
2023-04-16T16:43:59.764Z,29.3
2023-04-16T16:46:26.448Z,30.5
2023-04-16T16:48:53.125Z,30.8
2023-04-16T16:51:19.818Z,30.4
2023-04-16T16:53:46.503Z,29
2023-04-16T16:56:13.173Z,35.2
2023-04-16T16:58:39.855Z,31.1
2023-04-16T17:01:06.547Z,34.1
2023-04-16T17:06:00.005Z,31.9
2023-04-16T17:08:26.596Z,31.9
2023-04-16T17:10:53.289Z,37.3
2023-04-16T17:13:19.980Z,41.8
2023-04-16T17:15:45.265Z,38.9
2023-04-16T17:18:11.902Z,42.3
2023-04-16T17:20:38.577Z,42.2
2023-04-16T17:23:05.277Z,46
2023-04-16T17:25:32.032Z,39.9
2023-04-16T17:27:58.621Z,41.6
2023-04-16T17:30:25.313Z,43.2
2023-04-16T17:35:18.683Z,51.3
2023-04-16T17:37:45.343Z,38.1
2023-04-16T17:40:12.054Z,37.1
2023-04-16T17:42:38.764Z,38.8
2023-04-16T17:45:05.462Z,39.8
2023-04-16T17:47:30.634Z,45.4
2023-04-16T17:49:57.332Z,42.1
2023-04-16T17:52:24.006Z,42.6
2023-04-16T17:54:50.684Z,35.4
2023-04-16T17:57:17.380Z,32.5
2023-04-16T17:59:44.062Z,35.8
2023-04-16T18:02:10.742Z,42.7
2023-04-16T18:04:37.437Z,35.3
2023-04-16T18:07:04.102Z,39.8
2023-04-16T18:09:30.807Z,41.8
2023-04-16T18:11:57.485Z,40.5
2023-04-16T18:14:22.752Z,39.8
2023-04-16T18:16:49.427Z,44.6
2023-04-16T18:19:16.130Z,42.1
2023-04-16T18:21:42.786Z,37.7
2023-04-16T18:24:09.464Z,37.8
2023-04-16T18:26:36.143Z,39.4
2023-04-16T18:29:02.828Z,45.5
2023-04-16T18:31:29.505Z,40
2023-04-16T18:33:56.228Z,46.4
2023-04-16T18:36:22.900Z,44.5
2023-04-16T18:38:49.566Z,43.8
2023-04-16T18:41:16.294Z,49.6
2023-04-16T18:43:42.939Z,45.6
2023-04-16T18:46:09.635Z,41.7
2023-04-16T18:48:34.858Z,40
2023-04-16T18:51:01.593Z,45.2
2023-04-16T18:53:28.220Z,41.3
2023-04-16T18:55:54.908Z,41.1
2023-04-16T18:58:21.582Z,42.6
2023-04-16T19:00:48.273Z,44.8
2023-04-16T19:03:14.990Z,47.3
2023-04-16T19:05:41.692Z,42.8
2023-04-16T19:08:08.360Z,45.4
2023-04-16T19:10:35.020Z,37.2
2023-04-16T19:13:01.698Z,35
2023-04-16T19:15:28.378Z,36.1
2023-04-16T19:17:55.072Z,34.4
2023-04-16T19:20:20.298Z,29.7
2023-04-16T19:22:46.972Z,33
2023-04-16T19:25:13.669Z,34
2023-04-16T19:27:40.347Z,34.8
2023-04-16T19:30:07.032Z,39.7
2023-04-16T19:32:33.726Z,39.2
2023-04-16T19:35:00.160Z,36.1
2023-04-16T19:37:26.891Z,33.9
2023-04-16T19:39:53.551Z,36
2023-04-16T19:42:20.214Z,32.7
2023-04-16T19:44:46.913Z,38.2
2023-04-16T19:47:13.594Z,37.5
2023-04-16T19:49:40.274Z,35.8
2023-04-16T19:52:05.502Z,36.1
2023-04-16T19:54:32.188Z,42.1
2023-04-16T19:56:58.871Z,32.8
2023-04-16T19:59:25.602Z,37.6
2023-04-16T20:01:52.247Z,38
2023-04-16T20:04:18.961Z,38.2
2023-04-16T20:06:45.643Z,39.2
2023-04-16T20:09:12.322Z,41.5
2023-04-16T20:11:38.983Z,36.1
2023-04-16T20:14:05.671Z,36.3
2023-04-16T20:16:32.395Z,38.4
2023-04-16T20:18:59.033Z,33.9
2023-04-16T20:21:25.722Z,35.6
2023-04-16T20:26:17.630Z,36.8
2023-04-16T20:28:44.303Z,33.4
2023-04-16T20:31:10.999Z,32.5
2023-04-16T20:33:37.727Z,29.3
2023-04-16T20:36:04.397Z,30.4
2023-04-16T20:38:31.055Z,31.9
2023-04-16T20:40:57.746Z,31
2023-04-16T20:43:24.418Z,30.8
2023-04-16T20:45:51.153Z,30.5
2023-04-16T20:48:17.854Z,28.4
2023-04-16T20:50:44.485Z,25.9
2023-04-16T20:53:11.156Z,33.3
2023-04-16T20:55:36.406Z,27.1
2023-04-16T20:58:03.069Z,27
2023-04-16T21:00:29.763Z,26.7
2023-04-16T21:02:56.422Z,28.9
2023-04-16T21:05:23.154Z,29.7
2023-04-16T21:07:49.836Z,26.8
2023-04-16T21:10:16.484Z,25.2
2023-04-16T21:12:43.345Z,29.3
2023-04-16T21:15:09.888Z,27.7
2023-04-16T21:17:36.527Z,29.7
2023-04-16T21:20:03.226Z,23.9
2023-04-16T21:22:29.913Z,23.5
2023-04-16T21:24:56.601Z,25.6
2023-04-16T21:27:23.286Z,23.4
2023-04-16T21:29:49.952Z,24.2
2023-04-16T21:32:16.633Z,20.8
2023-04-16T21:34:41.868Z,20.7
2023-04-16T21:37:08.558Z,23.1
2023-04-16T21:39:35.248Z,21.1
2023-04-16T21:42:01.928Z,19.7
2023-04-16T21:44:28.627Z,25.2
2023-04-16T21:46:55.298Z,23.4
2023-04-16T21:49:21.975Z,23.9
2023-04-16T21:51:48.674Z,21.6
2023-04-16T21:54:15.379Z,24.2
2023-04-16T21:56:42.031Z,27.3
2023-04-16T21:59:08.720Z,28.1
2023-04-16T22:01:35.476Z,28.4
2023-04-16T22:04:02.092Z,27.1
2023-04-16T22:06:27.355Z,28.3
2023-04-16T22:08:53.988Z,27.6
2023-04-16T22:11:20.681Z,29.4
2023-04-16T22:13:47.374Z,28.7
2023-04-16T22:16:14.042Z,27.4
2023-04-16T22:18:40.790Z,26.1
2023-04-16T22:21:07.485Z,30.7
2023-04-16T22:23:34.122Z,24.6
2023-04-16T22:26:00.785Z,26.7
2023-04-16T22:28:27.471Z,30.7
2023-04-16T22:30:54.181Z,32
2023-04-16T22:33:20.845Z,31.9
2023-04-16T22:35:47.569Z,29.3
2023-04-16T22:38:12.764Z,28.3
2023-04-16T22:40:39.421Z,29.7
2023-04-16T22:43:06.145Z,34.6
2023-04-16T22:45:32.806Z,28.7
2023-04-16T22:47:59.486Z,29.9
2023-04-16T22:50:26.161Z,26.5
2023-04-16T22:52:52.849Z,32.2
2023-04-16T22:55:19.592Z,26.2
2023-04-16T22:57:46.226Z,27.7
2023-04-16T23:00:12.897Z,25.2
2023-04-16T23:02:39.591Z,29.5
2023-04-16T23:05:06.294Z,26
2023-04-16T23:07:32.971Z,22.3
2023-04-16T23:09:58.179Z,25.7
2023-04-16T23:12:24.874Z,25.4
2023-04-16T23:14:51.552Z,26.5
2023-04-16T23:17:18.253Z,29.6
2023-04-16T23:19:44.980Z,23.4
2023-04-16T23:22:11.601Z,21.4
2023-04-16T23:24:38.292Z,22.4
2023-04-16T23:27:04.979Z,25.2
2023-04-16T23:29:31.651Z,24.9
2023-04-16T23:31:58.345Z,25.1
2023-04-16T23:34:25.027Z,28.1
2023-04-16T23:36:51.722Z,21.5
2023-04-16T23:39:18.395Z,27.1
2023-04-16T23:41:43.620Z,25.2
2023-04-16T23:44:10.299Z,20.9
2023-04-16T23:46:36.988Z,31
2023-04-16T23:49:03.688Z,25.2
2023-04-16T23:51:30.369Z,23.6
2023-04-16T23:53:57.049Z,22
2023-04-16T23:56:23.723Z,25.6
2023-04-16T23:58:50.416Z,25.7
